sensor_id;sensor_type;location;lat;lon;timestamp;P1;durP1;ratioP1;P2;durP2;ratioP2
11245;SDS011;59870;50.106;8.580;2023-02-22T00:01:42;12.70;;;11.43;;
11245;SDS011;59870;50.106;8.580;2023-02-22T00:04:37;15.77;;;11.93;;
11245;SDS011;59870;50.106;8.580;2023-02-22T00:07:07;12.57;;;11.53;;
11245;SDS011;59870;50.106;8.580;2023-02-22T00:09:34;12.80;;;11.60;;
11245;SDS011;59870;50.106;8.580;2023-02-22T00:12:02;15.40;;;12.63;;
11245;SDS011;59870;50.106;8.580;2023-02-22T00:14:29;12.40;;;11.20;;
11245;SDS011;59870;50.106;8.580;2023-02-22T00:16:56;11.67;;;10.47;;
11245;SDS011;59870;50.106;8.580;2023-02-22T00:19:25;12.33;;;11.03;;
11245;SDS011;59870;50.106;8.580;2023-02-22T00:21:56;13.07;;;11.23;;
11245;SDS011;59870;50.106;8.580;2023-02-22T00:24:23;12.37;;;11.13;;
11245;SDS011;59870;50.106;8.580;2023-02-22T00:26:51;11.77;;;10.77;;
11245;SDS011;59870;50.106;8.580;2023-02-22T00:29:23;11.63;;;10.53;;
11245;SDS011;59870;50.106;8.580;2023-02-22T00:31:51;12.20;;;11.00;;
11245;SDS011;59870;50.106;8.580;2023-02-22T00:34:19;11.83;;;10.17;;
11245;SDS011;59870;50.106;8.580;2023-02-22T00:36:49;12.67;;;9.67;;
11245;SDS011;59870;50.106;8.580;2023-02-22T00:39:16;13.43;;;10.63;;
11245;SDS011;59870;50.106;8.580;2023-02-22T00:41:44;11.47;;;9.70;;
11245;SDS011;59870;50.106;8.580;2023-02-22T00:44:11;11.77;;;10.50;;
11245;SDS011;59870;50.106;8.580;2023-02-22T00:46:38;11.10;;;10.20;;
11245;SDS011;59870;50.106;8.580;2023-02-22T00:49:06;12.63;;;10.73;;
11245;SDS011;59870;50.106;8.580;2023-02-22T00:51:34;11.53;;;10.63;;
11245;SDS011;59870;50.106;8.580;2023-02-22T00:54:02;13.93;;;10.47;;
11245;SDS011;59870;50.106;8.580;2023-02-22T00:56:31;11.53;;;9.67;;
11245;SDS011;59870;50.106;8.580;2023-02-22T00:59:00;11.13;;;10.07;;
11245;SDS011;59870;50.106;8.580;2023-02-22T01:01:28;10.73;;;9.40;;
11245;SDS011;59870;50.106;8.580;2023-02-22T01:03:56;12.03;;;10.07;;
11245;SDS011;59870;50.106;8.580;2023-02-22T01:06:23;11.10;;;10.00;;
11245;SDS011;59870;50.106;8.580;2023-02-22T01:08:51;11.77;;;10.77;;
11245;SDS011;59870;50.106;8.580;2023-02-22T01:11:18;11.60;;;10.53;;
11245;SDS011;59870;50.106;8.580;2023-02-22T01:13:47;11.27;;;10.27;;
11245;SDS011;59870;50.106;8.580;2023-02-22T01:16:14;11.37;;;10.47;;
11245;SDS011;59870;50.106;8.580;2023-02-22T01:18:41;11.23;;;10.27;;
11245;SDS011;59870;50.106;8.580;2023-02-22T01:21:09;11.63;;;10.53;;
11245;SDS011;59870;50.106;8.580;2023-02-22T01:23:36;10.63;;;9.90;;
11245;SDS011;59870;50.106;8.580;2023-02-22T01:26:04;12.80;;;10.13;;
11245;SDS011;59870;50.106;8.580;2023-02-22T01:28:32;11.13;;;10.13;;
11245;SDS011;59870;50.106;8.580;2023-02-22T01:31:01;10.63;;;9.77;;
11245;SDS011;59870;50.106;8.580;2023-02-22T01:33:29;10.00;;;9.27;;
11245;SDS011;59870;50.106;8.580;2023-02-22T01:35:58;10.37;;;9.37;;
11245;SDS011;59870;50.106;8.580;2023-02-22T01:38:26;10.77;;;9.97;;
11245;SDS011;59870;50.106;8.580;2023-02-22T01:40:53;11.30;;;10.40;;
11245;SDS011;59870;50.106;8.580;2023-02-22T01:43:22;11.43;;;10.43;;
11245;SDS011;59870;50.106;8.580;2023-02-22T01:48:40;10.67;;;9.67;;
11245;SDS011;59870;50.106;8.580;2023-02-22T01:51:15;11.37;;;10.20;;
11245;SDS011;59870;50.106;8.580;2023-02-22T01:53:55;10.50;;;9.43;;
11245;SDS011;59870;50.106;8.580;2023-02-22T01:56:33;11.27;;;10.17;;
11245;SDS011;59870;50.106;8.580;2023-02-22T01:59:05;10.73;;;9.77;;
11245;SDS011;59870;50.106;8.580;2023-02-22T02:01:35;11.63;;;10.53;;
11245;SDS011;59870;50.106;8.580;2023-02-22T02:04:07;12.50;;;11.17;;
11245;SDS011;59870;50.106;8.580;2023-02-22T02:06:37;12.07;;;11.03;;
11245;SDS011;59870;50.106;8.580;2023-02-22T02:11:50;11.43;;;10.43;;
11245;SDS011;59870;50.106;8.580;2023-02-22T02:14:20;12.87;;;11.77;;
11245;SDS011;59870;50.106;8.580;2023-02-22T02:16:48;12.47;;;11.37;;
11245;SDS011;59870;50.106;8.580;2023-02-22T02:19:24;12.57;;;11.30;;
11245;SDS011;59870;50.106;8.580;2023-02-22T02:27:13;13.97;;;11.77;;
11245;SDS011;59870;50.106;8.580;2023-02-22T02:29:46;15.40;;;11.73;;
11245;SDS011;59870;50.106;8.580;2023-02-22T02:32:26;12.60;;;11.50;;
11245;SDS011;59870;50.106;8.580;2023-02-22T02:37:55;12.90;;;11.70;;
11245;SDS011;59870;50.106;8.580;2023-02-22T02:43:36;12.97;;;11.77;;
11245;SDS011;59870;50.106;8.580;2023-02-22T02:46:09;12.03;;;11.03;;
11245;SDS011;59870;50.106;8.580;2023-02-22T02:48:42;14.97;;;10.50;;
11245;SDS011;59870;50.106;8.580;2023-02-22T02:51:17;11.17;;;10.30;;
11245;SDS011;59870;50.106;8.580;2023-02-22T02:53:46;12.73;;;11.20;;
11245;SDS011;59870;50.106;8.580;2023-02-22T02:56:17;10.83;;;9.90;;
11245;SDS011;59870;50.106;8.580;2023-02-22T02:58:48;9.73;;;8.93;;
11245;SDS011;59870;50.106;8.580;2023-02-22T03:01:27;10.03;;;9.33;;
11245;SDS011;59870;50.106;8.580;2023-02-22T03:04:19;8.20;;;7.63;;
11245;SDS011;59870;50.106;8.580;2023-02-22T03:10:07;10.83;;;9.67;;
11245;SDS011;59870;50.106;8.580;2023-02-22T03:12:48;10.17;;;9.40;;
11245;SDS011;59870;50.106;8.580;2023-02-22T03:15:40;12.00;;;10.57;;
11245;SDS011;59870;50.106;8.580;2023-02-22T03:21:19;10.33;;;9.43;;
11245;SDS011;59870;50.106;8.580;2023-02-22T03:24:17;9.73;;;8.93;;
11245;SDS011;59870;50.106;8.580;2023-02-22T03:26:48;8.80;;;8.20;;
11245;SDS011;59870;50.106;8.580;2023-02-22T03:29:26;8.13;;;7.60;;
11245;SDS011;59870;50.106;8.580;2023-02-22T03:32:04;7.17;;;6.77;;
11245;SDS011;59870;50.106;8.580;2023-02-22T03:34:37;8.10;;;7.57;;
11245;SDS011;59870;50.106;8.580;2023-02-22T03:37:10;9.37;;;8.67;;
11245;SDS011;59870;50.106;8.580;2023-02-22T03:39:44;9.13;;;8.53;;
11245;SDS011;59870;50.106;8.580;2023-02-22T03:42:31;12.80;;;10.57;;
11245;SDS011;59870;50.106;8.580;2023-02-22T03:45:03;12.97;;;10.50;;
11245;SDS011;59870;50.106;8.580;2023-02-22T03:47:44;11.40;;;10.47;;
11245;SDS011;59870;50.106;8.580;2023-02-22T03:52:47;10.53;;;9.70;;
11245;SDS011;59870;50.106;8.580;2023-02-22T03:55:22;11.00;;;9.90;;
11245;SDS011;59870;50.106;8.580;2023-02-22T03:57:51;9.67;;;8.83;;
11245;SDS011;59870;50.106;8.580;2023-02-22T04:00:30;15.03;;;13.47;;
11245;SDS011;59870;50.106;8.580;2023-02-22T04:03:00;12.60;;;11.33;;
11245;SDS011;59870;50.106;8.580;2023-02-22T04:05:28;12.47;;;10.40;;
11245;SDS011;59870;50.106;8.580;2023-02-22T04:07:56;11.03;;;10.07;;
11245;SDS011;59870;50.106;8.580;2023-02-22T04:10:25;11.00;;;10.20;;
11245;SDS011;59870;50.106;8.580;2023-02-22T04:12:53;11.20;;;10.17;;
11245;SDS011;59870;50.106;8.580;2023-02-22T04:15:22;12.37;;;11.27;;
11245;SDS011;59870;50.106;8.580;2023-02-22T04:17:54;10.27;;;9.37;;
11245;SDS011;59870;50.106;8.580;2023-02-22T04:20:22;11.60;;;9.97;;
11245;SDS011;59870;50.106;8.580;2023-02-22T04:22:54;11.93;;;10.80;;
11245;SDS011;59870;50.106;8.580;2023-02-22T04:25:22;11.33;;;10.40;;
11245;SDS011;59870;50.106;8.580;2023-02-22T04:27:51;12.37;;;11.27;;
11245;SDS011;59870;50.106;8.580;2023-02-22T04:30:30;12.63;;;11.43;;
11245;SDS011;59870;50.106;8.580;2023-02-22T04:32:57;12.80;;;11.67;;
11245;SDS011;59870;50.106;8.580;2023-02-22T04:35:24;13.33;;;11.97;;
11245;SDS011;59870;50.106;8.580;2023-02-22T04:37:52;14.10;;;12.77;;
11245;SDS011;59870;50.106;8.580;2023-02-22T04:40:19;13.70;;;12.40;;
11245;SDS011;59870;50.106;8.580;2023-02-22T04:42:47;13.97;;;12.80;;
11245;SDS011;59870;50.106;8.580;2023-02-22T04:45:14;14.83;;;13.17;;
11245;SDS011;59870;50.106;8.580;2023-02-22T04:47:42;13.80;;;12.47;;
11245;SDS011;59870;50.106;8.580;2023-02-22T04:50:11;14.30;;;13.00;;
11245;SDS011;59870;50.106;8.580;2023-02-22T04:52:39;16.80;;;13.43;;
11245;SDS011;59870;50.106;8.580;2023-02-22T04:55:06;14.10;;;13.03;;
11245;SDS011;59870;50.106;8.580;2023-02-22T04:57:35;14.47;;;13.17;;
11245;SDS011;59870;50.106;8.580;2023-02-22T05:00:03;14.23;;;13.03;;
11245;SDS011;59870;50.106;8.580;2023-02-22T05:02:32;14.37;;;12.87;;
11245;SDS011;59870;50.106;8.580;2023-02-22T05:04:59;14.13;;;12.63;;
11245;SDS011;59870;50.106;8.580;2023-02-22T05:07:26;14.30;;;12.90;;
11245;SDS011;59870;50.106;8.580;2023-02-22T05:09:54;13.77;;;12.53;;
11245;SDS011;59870;50.106;8.580;2023-02-22T05:12:21;13.80;;;12.40;;
11245;SDS011;59870;50.106;8.580;2023-02-22T05:14:49;12.37;;;11.37;;
11245;SDS011;59870;50.106;8.580;2023-02-22T05:17:16;13.40;;;12.30;;
11245;SDS011;59870;50.106;8.580;2023-02-22T05:19:43;13.20;;;11.90;;
11245;SDS011;59870;50.106;8.580;2023-02-22T05:22:10;12.67;;;11.63;;
11245;SDS011;59870;50.106;8.580;2023-02-22T05:24:38;14.87;;;12.07;;
11245;SDS011;59870;50.106;8.580;2023-02-22T05:27:06;13.27;;;12.17;;
11245;SDS011;59870;50.106;8.580;2023-02-22T05:29:33;13.60;;;12.50;;
11245;SDS011;59870;50.106;8.580;2023-02-22T05:32:01;12.50;;;11.50;;
11245;SDS011;59870;50.106;8.580;2023-02-22T05:34:29;13.80;;;12.63;;
11245;SDS011;59870;50.106;8.580;2023-02-22T05:36:56;12.80;;;11.70;;
11245;SDS011;59870;50.106;8.580;2023-02-22T05:39:23;12.73;;;11.73;;
11245;SDS011;59870;50.106;8.580;2023-02-22T05:41:51;12.13;;;11.23;;
11245;SDS011;59870;50.106;8.580;2023-02-22T05:44:19;13.13;;;12.13;;
11245;SDS011;59870;50.106;8.580;2023-02-22T05:46:46;12.07;;;11.07;;
11245;SDS011;59870;50.106;8.580;2023-02-22T05:49:14;11.90;;;10.87;;
11245;SDS011;59870;50.106;8.580;2023-02-22T05:51:42;12.43;;;11.43;;
11245;SDS011;59870;50.106;8.580;2023-02-22T05:54:09;12.30;;;11.40;;
11245;SDS011;59870;50.106;8.580;2023-02-22T05:56:37;11.97;;;11.07;;
11245;SDS011;59870;50.106;8.580;2023-02-22T05:59:04;11.97;;;11.07;;
11245;SDS011;59870;50.106;8.580;2023-02-22T06:01:31;11.67;;;10.57;;
11245;SDS011;59870;50.106;8.580;2023-02-22T06:03:59;11.57;;;10.70;;
11245;SDS011;59870;50.106;8.580;2023-02-22T06:06:26;10.90;;;9.93;;
11245;SDS011;59870;50.106;8.580;2023-02-22T06:08:53;11.57;;;10.63;;
11245;SDS011;59870;50.106;8.580;2023-02-22T06:11:21;11.10;;;10.30;;
11245;SDS011;59870;50.106;8.580;2023-02-22T06:13:50;11.87;;;10.87;;
11245;SDS011;59870;50.106;8.580;2023-02-22T06:16:19;12.30;;;11.23;;
11245;SDS011;59870;50.106;8.580;2023-02-22T06:18:48;12.33;;;11.27;;
11245;SDS011;59870;50.106;8.580;2023-02-22T06:21:16;11.53;;;10.63;;
11245;SDS011;59870;50.106;8.580;2023-02-22T06:23:44;13.37;;;12.27;;
11245;SDS011;59870;50.106;8.580;2023-02-22T06:26:11;13.17;;;12.07;;
11245;SDS011;59870;50.106;8.580;2023-02-22T06:28:42;12.73;;;11.67;;
11245;SDS011;59870;50.106;8.580;2023-02-22T06:31:09;12.33;;;11.43;;
11245;SDS011;59870;50.106;8.580;2023-02-22T06:33:37;13.07;;;12.07;;
11245;SDS011;59870;50.106;8.580;2023-02-22T06:36:04;11.90;;;10.97;;
11245;SDS011;59870;50.106;8.580;2023-02-22T06:38:32;13.07;;;12.00;;
11245;SDS011;59870;50.106;8.580;2023-02-22T06:40:59;13.13;;;11.93;;
11245;SDS011;59870;50.106;8.580;2023-02-22T06:43:28;13.73;;;12.27;;
11245;SDS011;59870;50.106;8.580;2023-02-22T06:45:55;13.50;;;12.13;;
11245;SDS011;59870;50.106;8.580;2023-02-22T06:48:23;13.27;;;12.27;;
11245;SDS011;59870;50.106;8.580;2023-02-22T06:50:50;13.47;;;12.30;;
11245;SDS011;59870;50.106;8.580;2023-02-22T06:53:17;13.13;;;11.87;;
11245;SDS011;59870;50.106;8.580;2023-02-22T06:55:45;14.00;;;12.70;;
11245;SDS011;59870;50.106;8.580;2023-02-22T06:58:13;13.47;;;12.23;;
11245;SDS011;59870;50.106;8.580;2023-02-22T07:00:41;13.33;;;12.07;;
11245;SDS011;59870;50.106;8.580;2023-02-22T07:03:08;12.80;;;11.70;;
11245;SDS011;59870;50.106;8.580;2023-02-22T07:05:36;14.50;;;13.23;;
11245;SDS011;59870;50.106;8.580;2023-02-22T07:08:05;18.60;;;16.40;;
11245;SDS011;59870;50.106;8.580;2023-02-22T07:10:33;18.07;;;15.87;;
11245;SDS011;59870;50.106;8.580;2023-02-22T07:13:02;17.80;;;16.20;;
11245;SDS011;59870;50.106;8.580;2023-02-22T07:15:31;16.07;;;14.37;;
11245;SDS011;59870;50.106;8.580;2023-02-22T07:18:00;13.27;;;11.93;;
11245;SDS011;59870;50.106;8.580;2023-02-22T07:20:29;38.47;;;13.80;;
11245;SDS011;59870;50.106;8.580;2023-02-22T07:22:57;13.20;;;12.00;;
11245;SDS011;59870;50.106;8.580;2023-02-22T07:25:25;14.37;;;12.97;;
11245;SDS011;59870;50.106;8.580;2023-02-22T07:27:53;14.53;;;13.10;;
11245;SDS011;59870;50.106;8.580;2023-02-22T07:30:30;15.03;;;13.63;;
11245;SDS011;59870;50.106;8.580;2023-02-22T07:33:01;16.33;;;14.00;;
11245;SDS011;59870;50.106;8.580;2023-02-22T07:35:31;15.17;;;13.87;;
11245;SDS011;59870;50.106;8.580;2023-02-22T07:38:03;16.30;;;14.90;;
11245;SDS011;59870;50.106;8.580;2023-02-22T07:40:32;17.13;;;14.93;;
11245;SDS011;59870;50.106;8.580;2023-02-22T07:46:03;24.00;;;14.73;;
11245;SDS011;59870;50.106;8.580;2023-02-22T07:48:31;24.33;;;15.43;;
11245;SDS011;59870;50.106;8.580;2023-02-22T07:50:58;15.50;;;14.00;;
11245;SDS011;59870;50.106;8.580;2023-02-22T07:53:27;27.47;;;14.40;;
11245;SDS011;59870;50.106;8.580;2023-02-22T07:55:57;22.47;;;13.90;;
11245;SDS011;59870;50.106;8.580;2023-02-22T07:58:25;22.13;;;13.47;;
11245;SDS011;59870;50.106;8.580;2023-02-22T08:00:54;27.10;;;14.13;;
11245;SDS011;59870;50.106;8.580;2023-02-22T08:03:22;16.70;;;13.37;;
11245;SDS011;59870;50.106;8.580;2023-02-22T08:05:53;17.17;;;14.10;;
11245;SDS011;59870;50.106;8.580;2023-02-22T08:08:22;46.00;;;15.17;;
11245;SDS011;59870;50.106;8.580;2023-02-22T08:10:50;18.67;;;13.17;;
11245;SDS011;59870;50.106;8.580;2023-02-22T08:13:19;21.57;;;14.53;;
11245;SDS011;59870;50.106;8.580;2023-02-22T08:15:49;25.63;;;14.23;;
11245;SDS011;59870;50.106;8.580;2023-02-22T08:18:18;28.50;;;14.30;;
11245;SDS011;59870;50.106;8.580;2023-02-22T08:20:47;32.27;;;12.80;;
11245;SDS011;59870;50.106;8.580;2023-02-22T08:30:47;15.67;;;14.27;;
11245;SDS011;59870;50.106;8.580;2023-02-22T08:33:15;16.13;;;14.47;;
11245;SDS011;59870;50.106;8.580;2023-02-22T08:35:46;18.10;;;16.20;;
11245;SDS011;59870;50.106;8.580;2023-02-22T08:38:19;16.53;;;15.03;;
11245;SDS011;59870;50.106;8.580;2023-02-22T08:40:49;17.60;;;15.80;;
11245;SDS011;59870;50.106;8.580;2023-02-22T08:43:17;15.77;;;14.07;;
11245;SDS011;59870;50.106;8.580;2023-02-22T08:45:46;16.73;;;15.10;;
11245;SDS011;59870;50.106;8.580;2023-02-22T08:48:14;15.63;;;14.07;;
11245;SDS011;59870;50.106;8.580;2023-02-22T08:50:42;16.20;;;14.50;;
11245;SDS011;59870;50.106;8.580;2023-02-22T08:53:11;14.23;;;13.03;;
11245;SDS011;59870;50.106;8.580;2023-02-22T08:55:41;15.83;;;14.33;;
11245;SDS011;59870;50.106;8.580;2023-02-22T09:01:16;18.53;;;16.50;;
11245;SDS011;59870;50.106;8.580;2023-02-22T09:03:58;17.87;;;16.07;;
11245;SDS011;59870;50.106;8.580;2023-02-22T09:06:26;16.30;;;14.60;;
11245;SDS011;59870;50.106;8.580;2023-02-22T09:08:54;15.70;;;14.10;;
11245;SDS011;59870;50.106;8.580;2023-02-22T09:11:22;15.97;;;14.37;;
11245;SDS011;59870;50.106;8.580;2023-02-22T09:13:50;15.53;;;14.10;;
11245;SDS011;59870;50.106;8.580;2023-02-22T09:16:17;17.13;;;15.53;;
11245;SDS011;59870;50.106;8.580;2023-02-22T09:18:45;16.33;;;14.77;;
11245;SDS011;59870;50.106;8.580;2023-02-22T09:21:14;17.53;;;15.70;;
11245;SDS011;59870;50.106;8.580;2023-02-22T09:23:41;16.37;;;14.83;;
11245;SDS011;59870;50.106;8.580;2023-02-22T09:26:09;16.17;;;14.77;;
11245;SDS011;59870;50.106;8.580;2023-02-22T09:28:36;17.47;;;15.67;;
11245;SDS011;59870;50.106;8.580;2023-02-22T09:31:04;14.83;;;13.43;;
11245;SDS011;59870;50.106;8.580;2023-02-22T09:33:31;16.43;;;14.93;;
11245;SDS011;59870;50.106;8.580;2023-02-22T09:35:59;16.60;;;14.93;;
11245;SDS011;59870;50.106;8.580;2023-02-22T09:38:29;15.60;;;13.93;;
11245;SDS011;59870;50.106;8.580;2023-02-22T09:43:55;17.40;;;15.53;;
11245;SDS011;59870;50.106;8.580;2023-02-22T09:46:44;19.07;;;17.07;;
11245;SDS011;59870;50.106;8.580;2023-02-22T09:49:23;21.90;;;19.07;;
11245;SDS011;59870;50.106;8.580;2023-02-22T09:51:59;22.30;;;19.97;;
11245;SDS011;59870;50.106;8.580;2023-02-22T09:54:43;23.70;;;19.97;;
11245;SDS011;59870;50.106;8.580;2023-02-22T09:57:28;21.73;;;19.10;;
11245;SDS011;59870;50.106;8.580;2023-02-22T10:00:14;22.80;;;19.67;;
11245;SDS011;59870;50.106;8.580;2023-02-22T10:02:56;24.37;;;21.33;;
11245;SDS011;59870;50.106;8.580;2023-02-22T10:05:41;25.77;;;21.60;;
11245;SDS011;59870;50.106;8.580;2023-02-22T10:08:13;29.57;;;21.67;;
11245;SDS011;59870;50.106;8.580;2023-02-22T10:10:45;22.93;;;20.13;;
11245;SDS011;59870;50.106;8.580;2023-02-22T10:13:24;31.80;;;20.23;;
11245;SDS011;59870;50.106;8.580;2023-02-22T10:21:53;31.43;;;22.17;;
11245;SDS011;59870;50.106;8.580;2023-02-22T10:24:33;24.87;;;21.30;;
11245;SDS011;59870;50.106;8.580;2023-02-22T10:27:14;27.97;;;22.40;;
11245;SDS011;59870;50.106;8.580;2023-02-22T10:32:53;28.87;;;22.27;;
11245;SDS011;59870;50.106;8.580;2023-02-22T10:35:45;28.87;;;22.83;;
11245;SDS011;59870;50.106;8.580;2023-02-22T10:38:15;25.20;;;22.50;;
11245;SDS011;59870;50.106;8.580;2023-02-22T10:41:29;26.20;;;22.37;;
11245;SDS011;59870;50.106;8.580;2023-02-22T10:43:36;26.23;;;23.03;;
11245;SDS011;59870;50.106;8.580;2023-02-22T10:46:10;24.20;;;21.70;;
11245;SDS011;59870;50.106;8.580;2023-02-22T10:48:44;25.03;;;22.43;;
11245;SDS011;59870;50.106;8.580;2023-02-22T10:51:13;27.07;;;24.17;;
11245;SDS011;59870;50.106;8.580;2023-02-22T10:53:41;30.57;;;23.53;;
11245;SDS011;59870;50.106;8.580;2023-02-22T10:59:24;30.10;;;25.30;;
11245;SDS011;59870;50.106;8.580;2023-02-22T11:02:00;30.17;;;26.10;;
11245;SDS011;59870;50.106;8.580;2023-02-22T11:04:44;30.27;;;26.90;;
11245;SDS011;59870;50.106;8.580;2023-02-22T11:07:21;30.63;;;26.57;;
11245;SDS011;59870;50.106;8.580;2023-02-22T11:12:39;31.70;;;26.93;;
11245;SDS011;59870;50.106;8.580;2023-02-22T11:17:42;29.37;;;25.20;;
11245;SDS011;59870;50.106;8.580;2023-02-22T11:20:19;27.73;;;24.90;;
11245;SDS011;59870;50.106;8.580;2023-02-22T11:22:51;28.37;;;25.23;;
11245;SDS011;59870;50.106;8.580;2023-02-22T11:25:22;28.67;;;25.57;;
11245;SDS011;59870;50.106;8.580;2023-02-22T11:27:53;32.00;;;26.13;;
11245;SDS011;59870;50.106;8.580;2023-02-22T11:30:30;28.57;;;25.23;;
11245;SDS011;59870;50.106;8.580;2023-02-22T11:35:53;27.70;;;24.67;;
11245;SDS011;59870;50.106;8.580;2023-02-22T11:43:45;29.33;;;26.23;;
11245;SDS011;59870;50.106;8.580;2023-02-22T11:46:24;30.87;;;27.57;;
11245;SDS011;59870;50.106;8.580;2023-02-22T11:49:02;30.47;;;26.13;;
11245;SDS011;59870;50.106;8.580;2023-02-22T12:08:31;31.30;;;27.13;;
11245;SDS011;59870;50.106;8.580;2023-02-22T12:11:24;34.60;;;28.57;;
11245;SDS011;59870;50.106;8.580;2023-02-22T12:14:10;35.50;;;27.90;;
11245;SDS011;59870;50.106;8.580;2023-02-22T12:20:36;33.17;;;28.50;;
11245;SDS011;59870;50.106;8.580;2023-02-22T12:22:52;32.33;;;28.17;;
11245;SDS011;59870;50.106;8.580;2023-02-22T12:25:27;33.57;;;27.43;;
11245;SDS011;59870;50.106;8.580;2023-02-22T12:28:06;35.57;;;28.50;;
11245;SDS011;59870;50.106;8.580;2023-02-22T12:30:52;33.00;;;27.83;;
11245;SDS011;59870;50.106;8.580;2023-02-22T12:33:30;32.90;;;28.67;;
11245;SDS011;59870;50.106;8.580;2023-02-22T12:36:08;34.07;;;28.13;;
11245;SDS011;59870;50.106;8.580;2023-02-22T12:38:42;31.87;;;26.97;;
11245;SDS011;59870;50.106;8.580;2023-02-22T12:41:17;30.53;;;24.80;;
11245;SDS011;59870;50.106;8.580;2023-02-22T12:43:59;26.73;;;23.83;;
11245;SDS011;59870;50.106;8.580;2023-02-22T12:46:48;28.07;;;24.87;;
11245;SDS011;59870;50.106;8.580;2023-02-22T13:00:42;23.03;;;20.60;;
11245;SDS011;59870;50.106;8.580;2023-02-22T13:03:35;22.03;;;19.83;;
11245;SDS011;59870;50.106;8.580;2023-02-22T13:14:53;22.57;;;20.27;;
11245;SDS011;59870;50.106;8.580;2023-02-22T13:52:57;14.93;;;13.40;;
11245;SDS011;59870;50.106;8.580;2023-02-22T13:55:32;16.30;;;14.23;;
11245;SDS011;59870;50.106;8.580;2023-02-22T13:58:03;15.33;;;13.93;;
11245;SDS011;59870;50.106;8.580;2023-02-22T14:16:26;15.70;;;14.13;;
11245;SDS011;59870;50.106;8.580;2023-02-22T14:19:14;17.77;;;14.63;;
11245;SDS011;59870;50.106;8.580;2023-02-22T14:21:56;17.00;;;15.53;;
11245;SDS011;59870;50.106;8.580;2023-02-22T14:24:40;16.03;;;14.60;;
11245;SDS011;59870;50.106;8.580;2023-02-22T14:27:16;16.10;;;14.40;;
11245;SDS011;59870;50.106;8.580;2023-02-22T14:29:56;15.93;;;14.50;;
11245;SDS011;59870;50.106;8.580;2023-02-22T14:32:31;16.43;;;14.90;;
11245;SDS011;59870;50.106;8.580;2023-02-22T14:35:00;16.57;;;14.97;;
11245;SDS011;59870;50.106;8.580;2023-02-22T14:37:40;16.27;;;14.60;;
11245;SDS011;59870;50.106;8.580;2023-02-22T14:40:20;18.30;;;15.23;;
11245;SDS011;59870;50.106;8.580;2023-02-22T14:45:35;16.77;;;15.07;;
11245;SDS011;59870;50.106;8.580;2023-02-22T14:55:57;19.93;;;18.00;;
11245;SDS011;59870;50.106;8.580;2023-02-22T15:01:19;19.20;;;17.13;;
11245;SDS011;59870;50.106;8.580;2023-02-22T15:04:22;18.23;;;16.33;;
11245;SDS011;59870;50.106;8.580;2023-02-22T15:06:55;18.80;;;16.90;;
11245;SDS011;59870;50.106;8.580;2023-02-22T15:09:25;19.30;;;17.03;;
11245;SDS011;59870;50.106;8.580;2023-02-22T15:14:34;20.23;;;18.07;;
11245;SDS011;59870;50.106;8.580;2023-02-22T15:17:08;21.17;;;19.07;;
11245;SDS011;59870;50.106;8.580;2023-02-22T15:19:41;21.70;;;19.30;;
11245;SDS011;59870;50.106;8.580;2023-02-22T15:22:17;21.87;;;19.70;;
11245;SDS011;59870;50.106;8.580;2023-02-22T15:25:09;20.23;;;18.23;;
11245;SDS011;59870;50.106;8.580;2023-02-22T15:27:37;23.27;;;19.10;;
11245;SDS011;59870;50.106;8.580;2023-02-22T15:32:48;24.40;;;20.20;;
11245;SDS011;59870;50.106;8.580;2023-02-22T15:35:31;23.73;;;21.43;;
11245;SDS011;59870;50.106;8.580;2023-02-22T15:38:04;26.00;;;21.30;;
11245;SDS011;59870;50.106;8.580;2023-02-22T15:40:33;23.37;;;20.87;;
11245;SDS011;59870;50.106;8.580;2023-02-22T15:43:03;26.50;;;21.67;;
11245;SDS011;59870;50.106;8.580;2023-02-22T15:45:34;24.10;;;21.60;;
11245;SDS011;59870;50.106;8.580;2023-02-22T15:48:09;24.30;;;20.47;;
11245;SDS011;59870;50.106;8.580;2023-02-22T15:50:37;24.47;;;20.27;;
11245;SDS011;59870;50.106;8.580;2023-02-22T15:53:06;23.87;;;20.67;;
11245;SDS011;59870;50.106;8.580;2023-02-22T15:55:47;26.07;;;21.43;;
11245;SDS011;59870;50.106;8.580;2023-02-22T15:58:22;26.10;;;20.90;;
11245;SDS011;59870;50.106;8.580;2023-02-22T16:01:01;24.97;;;21.17;;
11245;SDS011;59870;50.106;8.580;2023-02-22T16:03:34;24.40;;;20.90;;
11245;SDS011;59870;50.106;8.580;2023-02-22T16:09:08;24.63;;;22.13;;
11245;SDS011;59870;50.106;8.580;2023-02-22T16:11:42;24.90;;;21.73;;
11245;SDS011;59870;50.106;8.580;2023-02-22T16:14:26;29.20;;;23.60;;
11245;SDS011;59870;50.106;8.580;2023-02-22T16:19:59;24.40;;;21.90;;
11245;SDS011;59870;50.106;8.580;2023-02-22T16:22:45;24.20;;;21.53;;
11245;SDS011;59870;50.106;8.580;2023-02-22T16:27:45;26.93;;;21.37;;
11245;SDS011;59870;50.106;8.580;2023-02-22T16:32:52;26.67;;;21.63;;
11245;SDS011;59870;50.106;8.580;2023-02-22T16:35:26;24.23;;;21.63;;
11245;SDS011;59870;50.106;8.580;2023-02-22T16:37:56;25.23;;;19.97;;
11245;SDS011;59870;50.106;8.580;2023-02-22T16:43:07;24.47;;;21.83;;
11245;SDS011;59870;50.106;8.580;2023-02-22T16:45:38;29.33;;;21.53;;
11245;SDS011;59870;50.106;8.580;2023-02-22T16:48:10;28.40;;;22.73;;
11245;SDS011;59870;50.106;8.580;2023-02-22T16:50:47;23.23;;;20.53;;
11245;SDS011;59870;50.106;8.580;2023-02-22T16:53:18;25.90;;;22.23;;
11245;SDS011;59870;50.106;8.580;2023-02-22T16:55:48;25.50;;;21.73;;
11245;SDS011;59870;50.106;8.580;2023-02-22T16:58:17;27.43;;;22.30;;
11245;SDS011;59870;50.106;8.580;2023-02-22T17:00:57;27.37;;;20.70;;
11245;SDS011;59870;50.106;8.580;2023-02-22T17:03:30;30.63;;;21.20;;
11245;SDS011;59870;50.106;8.580;2023-02-22T17:05:58;27.50;;;22.37;;
11245;SDS011;59870;50.106;8.580;2023-02-22T17:08:25;25.10;;;21.73;;
11245;SDS011;59870;50.106;8.580;2023-02-22T17:10:53;26.60;;;22.47;;
11245;SDS011;59870;50.106;8.580;2023-02-22T17:13:23;26.80;;;21.57;;
11245;SDS011;59870;50.106;8.580;2023-02-22T17:15:53;27.20;;;21.30;;
11245;SDS011;59870;50.106;8.580;2023-02-22T17:18:23;24.93;;;21.17;;
11245;SDS011;59870;50.106;8.580;2023-02-22T17:20:54;24.80;;;21.47;;
11245;SDS011;59870;50.106;8.580;2023-02-22T17:23:22;26.17;;;21.97;;
11245;SDS011;59870;50.106;8.580;2023-02-22T17:25:51;33.90;;;21.27;;
11245;SDS011;59870;50.106;8.580;2023-02-22T17:28:21;31.97;;;22.97;;
11245;SDS011;59870;50.106;8.580;2023-02-22T17:30:50;36.30;;;26.60;;
11245;SDS011;59870;50.106;8.580;2023-02-22T17:33:21;34.87;;;24.13;;
11245;SDS011;59870;50.106;8.580;2023-02-22T17:35:54;52.13;;;32.57;;
11245;SDS011;59870;50.106;8.580;2023-02-22T17:38:23;39.70;;;26.03;;
11245;SDS011;59870;50.106;8.580;2023-02-22T17:40:55;32.90;;;21.80;;
11245;SDS011;59870;50.106;8.580;2023-02-22T17:43:24;26.47;;;21.23;;
11245;SDS011;59870;50.106;8.580;2023-02-22T17:45:53;36.40;;;23.33;;
11245;SDS011;59870;50.106;8.580;2023-02-22T17:48:21;28.27;;;22.20;;
11245;SDS011;59870;50.106;8.580;2023-02-22T17:50:50;33.33;;;22.17;;
11245;SDS011;59870;50.106;8.580;2023-02-22T17:53:19;36.80;;;24.13;;
11245;SDS011;59870;50.106;8.580;2023-02-22T17:55:48;30.23;;;23.33;;
11245;SDS011;59870;50.106;8.580;2023-02-22T17:58:16;32.57;;;25.10;;
11245;SDS011;59870;50.106;8.580;2023-02-22T18:00:45;32.60;;;23.87;;
11245;SDS011;59870;50.106;8.580;2023-02-22T18:03:17;31.40;;;25.10;;